ロサンゼルス の空港の天気 - METARとTAF

ロサンゼルス国際空港 ( KLAX / LAX ) - アメリカ合衆国 カリフォルニア州ロサンゼルス
飛行場実況気象(Metar)
観測時間05/27 11:53 PDT (05/27 18:53 UTC)
風向・風速南西 5m/s
視程10km以上
天気現象
少しの雲 雲底高度 520m
全天の4割程度の雲 雲底高度 880m
全天の4割程度の雲 雲底高度 1250m
気温19.4℃
湿度59%
気圧1018.2hPa
METARKLAX 271853Z 23009KT 10SM FEW017 SCT029 SCT041 19/11 A3007 RMK AO2 SLP182 T01940111
過去の天気等 Google飛行場航空写真 Wunderground天気予報

過去48時間のMETAR

飛行場予報(TAF)
発表時間: 5/27 10:40 PDT (5/27 17:40 UTC)
予報対象時間: 27日11時 PDT ~ 28日17時 PDT
風向・風速西 4m/s
視程10km以上
全天の8割程度の雲 雲底高度 1,220m
27日13時 PDT から
風向・風速西 7m/s
視程10km以上
なし
27日20時 PDT から
風向・風速西 4m/s
視程10km以上
なし
28日1時 PDT から
風向・風速不定 2m/s
視程10km以上
全天を覆う雲 雲底高度 370m
28日10時 PDT から
風向・風速西南西 3m/s
視程10km以上
全天の4割程度の雲 雲底高度 460m
28日13時 PDT から
風向・風速西 6m/s
視程10km以上
なし
KLAX 271740Z 2718/2824 26008KT P6SM BKN040
FM272000 26014KT P6SM SKC
FM280300 26008KT P6SM SKC
FM280800 VRB03KT P6SM OVC012
FM281700 24006KT P6SM SCT015
FM282000 26012KT P6SM SKC